Flight Track Log - Related Links

Times and Time Zones

All times are in EDT time to prevent confusion due to time zone crossing. See the N1560T flight status page for this flight to view local times or setup timezone preferences in your user account.

Time Position Orientation Groundspeed Altitude Reporting Facility
EDT Latitude Longitude Course Direction KTS MPH feet Rate Location/Type
Thu 09:10:45 AM 43.9269 -91.2611 North 150 173 2,600  Level Minneapolis Center
Thu 09:11:47 AM 43.9733 -91.2628 359° North 160 184 4,400 1,463 Climbing Minneapolis Center
Thu 09:12:48 AM 44.0069 -91.2619 North 153 176 5,600 1,403 Climbing Minneapolis Center
Thu 09:13:51 AM 44.0547 -91.2817 343° North 153 176 7,300 1,210 Climbing Minneapolis Center
Thu 09:14:00 AM 44.0654 -91.4667 North  Level FlightAware Approximate
Thu 09:14:52 AM 44.0956 -91.3106 333° Northwest 158 182 8,100  Level Minneapolis Center
Thu 09:15:00 AM 44.1198 -91.4667 North  Level FlightAware Approximate
Thu 09:15:54 AM 44.1417 -91.3567 324° Northwest 208 239 8,000  Level Minneapolis Center
Thu 09:16:00 AM 44.1741 -91.4667 North  Level FlightAware Approximate
Thu 09:16:56 AM 44.1586 -91.4383 286° West 213 245 8,100  Level Minneapolis Center
Thu 09:17:58 AM 44.1747 -91.5128 287° West 210 242 8,000 -49 Descending Minneapolis Center
Thu 09:18:59 AM 44.1978 -91.5911 292° West 204 235 8,000  Level Minneapolis Center
Thu 09:20:01 AM 44.2250 -91.6664 297° West 210 242 8,000  Level Minneapolis Center
Thu 09:21:15 AM 44.2458 -91.7483 290° West 209 241 8,000  Level Minneapolis Center
Thu 09:22:17 AM 44.2708 -91.8428 290° West 209 241 8,000 -221 Level Minneapolis Center
Thu 09:23:31 AM 44.2917 -91.9183 291° West 212 244 7,500 -574 Descending Minneapolis Center
Thu 09:24:33 AM 44.3175 -92.0167 290° West 218 251 6,700 -732 Descending Minneapolis Center
Thu 09:25:34 AM 44.3353 -92.0817 291° West 218 251 6,000 -683 Descending Minneapolis Center
Thu 09:26:36 AM 44.3589 -92.1658 291° West 220 253 5,300 -774 Descending Minneapolis Center
Thu 09:27:38 AM 44.3833 -92.2603 290° West 226 260 4,400 -634 Descending Minneapolis Center
Thu 09:28:39 AM 44.4081 -92.3461 292° West 219 252 4,000 -146 Descending Minneapolis Center
Thu 09:29:41 AM 44.4272 -92.4158 291° West 200 230 4,100  Climbing Minneapolis Center
Thu 09:30:43 AM 44.4472 -92.4892 291° West 201 231 4,000 -44 Descending Minneapolis Center
Thu 09:31:56 AM 44.4694 -92.5708 291° West 201 231 4,000  Level Minneapolis Center
Thu 09:32:58 AM 44.4881 -92.6517 288° West 203 234 4,000  Level Minneapolis Center
Thu 09:34:00 AM 44.5133 -92.7403 292° West 205 236 4,000  Level Minneapolis Center
Thu 09:35:14 AM 44.5375 -92.8281 291° West 203 234 4,000  Level Minneapolis Center
Thu 09:36:16 AM 44.5578 -92.9019 291° West 203 234 4,000 -146 Level Minneapolis Center
Thu 09:37:17 AM 44.5772 -92.9817 289° West 202 232 3,700 -439 Descending Minneapolis Center
Thu 09:38:19 AM 44.5972 -93.0553 291° West 213 245 3,100 -387 Descending Minneapolis Center
Thu 09:39:21 AM 44.6178 -93.1322 291° West 210 242 2,900 -49 Descending Minneapolis Center
Thu 09:40:22 AM 44.6419 -93.2000 297° West 202 232 3,000 49 Climbing Minneapolis Center
Thu 09:41:24 AM 44.6811 -93.2542 315° West 197 227 3,000 -98 Level Minneapolis Center
Thu 09:42:25 AM 44.7189 -93.3103 313° West 193 222 2,800 -222 Descending Minneapolis Center
Thu 09:43:39 AM 44.7594 -93.3661 316° Northwest 198 228 2,500 -353 Descending Minneapolis Center
Thu 09:44:41 AM 44.8089 -93.3864 344° North 151 174 2,000 -677 Descending Minneapolis Center
Thu 09:45:43 AM 44.8250 -93.4447 291° West 137 158 1,100 -871 Descending Minneapolis Center
Thu 09:47:00 AM 44.8167 -93.4500 305° West  Level FlightAware Approximate
Thu 09:54:00 AM 44.8275 -93.4586 305° West  Level Estimated

Login

Don't have an account? Register now (free) for customized features, flight alerts, and more!